MEA281 UDYZ-OLBA
Flight info
| Callsign | MEA281 |
|---|---|
| Flight time | 1h 41m |
| Altitude | 38000 |
| Route | INDUR3E INDUR UB374 ERZ UW701 GAZ DCT NIKAS/N0392F280 W17 BALMA BALMA1X |
| Aircraft | A320/M-SDE3FGHIRWY/LB1 |
Departure
| Time | 2026-05-06 20:03 |
|---|---|
| Airport | Zvartnots International Airport (UDYZ) |
Arrival
| Time | 2026-05-06 21:44 |
|---|---|
| Airport | Beirut Rafic Hariri International Airport (OLBA) |
| Time | Latitude | Longitude | Altitude | Speed | Heading |
|---|---|---|---|---|---|
| 2026-05-06 19:36 | 40.15101 | 44.40004 | 2820 ft | 0 kts | 1° |
| 2026-05-06 19:54 | 40.15084 | 44.40004 | 2824 ft | 4 kts | 1° |
| 2026-05-06 19:55 | 40.15057 | 44.40003 | 2821 ft | 4 kts | 1° |
| 2026-05-06 19:55 | 40.15032 | 44.40002 | 2821 ft | 2 kts | 1° |
| 2026-05-06 19:55 | 40.15010 | 44.39997 | 2822 ft | 4 kts | 28° |
| 2026-05-06 19:55 | 40.14995 | 44.39986 | 2820 ft | 0 kts | 25° |
| 2026-05-06 19:58 | 40.14995 | 44.39995 | 2820 ft | 4 kts | 87° |
| 2026-05-06 19:58 | 40.14984 | 44.40068 | 2821 ft | 10 kts | 92° |
| 2026-05-06 19:59 | 40.14984 | 44.40169 | 2821 ft | 12 kts | 90° |
| 2026-05-06 19:59 | 40.14984 | 44.40285 | 2822 ft | 13 kts | 89° |
| 2026-05-06 19:59 | 40.14986 | 44.40414 | 2823 ft | 15 kts | 89° |
| 2026-05-06 19:59 | 40.14986 | 44.40555 | 2824 ft | 16 kts | 89° |
| 2026-05-06 20:00 | 40.14987 | 44.40708 | 2825 ft | 18 kts | 89° |
| 2026-05-06 20:00 | 40.14989 | 44.40873 | 2827 ft | 19 kts | 89° |
| 2026-05-06 20:00 | 40.14990 | 44.41049 | 2827 ft | 20 kts | 90° |
| 2026-05-06 20:00 | 40.14991 | 44.41232 | 2828 ft | 19 kts | 90° |
| 2026-05-06 20:01 | 40.14993 | 44.41408 | 2829 ft | 20 kts | 89° |
| 2026-05-06 20:01 | 40.14994 | 44.41591 | 2830 ft | 18 kts | 90° |
| 2026-05-06 20:01 | 40.14948 | 44.41727 | 2831 ft | 18 kts | 142° |
| 2026-05-06 20:01 | 40.14855 | 44.41805 | 2833 ft | 14 kts | 148° |
| 2026-05-06 20:02 | 40.14765 | 44.41829 | 2834 ft | 9 kts | 183° |
| 2026-05-06 20:02 | 40.14743 | 44.41756 | 2833 ft | 11 kts | 269° |
| 2026-05-06 20:02 | 40.14742 | 44.41525 | 2830 ft | 56 kts | 270° |
| 2026-05-06 20:02 | 40.14737 | 44.40711 | 2824 ft | 119 kts | 269° |
| 2026-05-06 20:03 | 40.14730 | 44.39408 | 2815 ft | 166 kts | 269° |
| 2026-05-06 20:03 | 40.14726 | 44.37806 | 3180 ft | 178 kts | 270° |
| 2026-05-06 20:03 | 40.14736 | 44.36184 | 3884 ft | 181 kts | 270° |
| 2026-05-06 20:03 | 40.14735 | 44.34443 | 4287 ft | 205 kts | 270° |
| 2026-05-06 20:04 | 40.14692 | 44.32448 | 4661 ft | 233 kts | 267° |
| 2026-05-06 20:04 | 40.14585 | 44.30242 | 5207 ft | 252 kts | 265° |
| 2026-05-06 20:04 | 40.14438 | 44.27917 | 5860 ft | 268 kts | 265° |
| 2026-05-06 20:04 | 40.14303 | 44.25451 | 6686 ft | 274 kts | 266° |
| 2026-05-06 20:05 | 40.14194 | 44.22963 | 7648 ft | 274 kts | 266° |
| 2026-05-06 20:05 | 40.14100 | 44.20462 | 8566 ft | 278 kts | 266° |
| 2026-05-06 20:05 | 40.13989 | 44.17928 | 9482 ft | 281 kts | 265° |
| 2026-05-06 20:05 | 40.13869 | 44.15362 | 10277 ft | 289 kts | 265° |
| 2026-05-06 20:06 | 40.13738 | 44.12633 | 10588 ft | 312 kts | 265° |
| 2026-05-06 20:06 | 40.13600 | 44.09751 | 11202 ft | 322 kts | 265° |
| 2026-05-06 20:06 | 40.13461 | 44.06811 | 11991 ft | 326 kts | 265° |
| 2026-05-06 20:06 | 40.13326 | 44.03834 | 12824 ft | 330 kts | 265° |
| 2026-05-06 20:07 | 40.13192 | 44.00864 | 13658 ft | 334 kts | 264° |
| 2026-05-06 20:07 | 40.13053 | 43.97817 | 14422 ft | 338 kts | 264° |
| 2026-05-06 20:07 | 40.12909 | 43.94735 | 15170 ft | 341 kts | 264° |
| 2026-05-06 20:07 | 40.12763 | 43.91635 | 15941 ft | 344 kts | 264° |
| 2026-05-06 20:08 | 40.12614 | 43.88504 | 16695 ft | 347 kts | 264° |
| 2026-05-06 20:08 | 40.12465 | 43.85349 | 17454 ft | 349 kts | 264° |
| 2026-05-06 20:08 | 40.12316 | 43.82169 | 18225 ft | 352 kts | 264° |
| 2026-05-06 20:08 | 40.12165 | 43.78963 | 18912 ft | 355 kts | 264° |
| 2026-05-06 20:09 | 40.12008 | 43.75729 | 19593 ft | 358 kts | 264° |
| 2026-05-06 20:09 | 40.11848 | 43.72508 | 19955 ft | 361 kts | 264° |
| 2026-05-06 20:09 | 40.11687 | 43.69236 | 20070 ft | 361 kts | 264° |
| 2026-05-06 20:09 | 40.11527 | 43.65966 | 20080 ft | 361 kts | 264° |
| 2026-05-06 20:10 | 40.11364 | 43.62699 | 20091 ft | 360 kts | 264° |
| 2026-05-06 20:10 | 40.11194 | 43.59432 | 20130 ft | 362 kts | 264° |
| 2026-05-06 20:10 | 40.11017 | 43.56137 | 20773 ft | 365 kts | 264° |
| 2026-05-06 20:10 | 40.10837 | 43.52814 | 21434 ft | 369 kts | 264° |
| 2026-05-06 20:11 | 40.10654 | 43.49460 | 22093 ft | 372 kts | 264° |
| 2026-05-06 20:11 | 40.10467 | 43.46085 | 22775 ft | 375 kts | 264° |
| 2026-05-06 20:11 | 40.10276 | 43.42672 | 23456 ft | 379 kts | 263° |
| 2026-05-06 20:11 | 40.10089 | 43.39272 | 24074 ft | 382 kts | 264° |
| 2026-05-06 20:12 | 40.09900 | 43.35802 | 24662 ft | 384 kts | 263° |
| 2026-05-06 20:12 | 40.09712 | 43.32310 | 25275 ft | 386 kts | 263° |
| 2026-05-06 20:12 | 40.09524 | 43.28801 | 25906 ft | 388 kts | 263° |
| 2026-05-06 20:12 | 40.09331 | 43.25275 | 26504 ft | 390 kts | 263° |
| 2026-05-06 20:13 | 40.09131 | 43.21734 | 27108 ft | 392 kts | 263° |
| 2026-05-06 20:13 | 40.08927 | 43.18181 | 27717 ft | 393 kts | 263° |
| 2026-05-06 20:13 | 40.08721 | 43.14613 | 28309 ft | 395 kts | 263° |
| 2026-05-06 20:13 | 40.08515 | 43.11027 | 28889 ft | 397 kts | 262° |
| 2026-05-06 20:14 | 40.08309 | 43.07426 | 29443 ft | 399 kts | 262° |
| 2026-05-06 20:14 | 40.08101 | 43.03808 | 29952 ft | 400 kts | 262° |
| 2026-05-06 20:14 | 40.07890 | 43.00231 | 30410 ft | 402 kts | 262° |
| 2026-05-06 20:14 | 40.07673 | 42.96577 | 30799 ft | 405 kts | 262° |
| 2026-05-06 20:15 | 40.07454 | 42.92895 | 31167 ft | 408 kts | 262° |
| 2026-05-06 20:15 | 40.07234 | 42.89184 | 31525 ft | 411 kts | 262° |
| 2026-05-06 20:15 | 40.07015 | 42.85450 | 31939 ft | 413 kts | 262° |
| 2026-05-06 20:15 | 40.06796 | 42.81719 | 32445 ft | 412 kts | 262° |
| 2026-05-06 20:16 | 40.06576 | 42.77993 | 32937 ft | 411 kts | 262° |
| 2026-05-06 20:16 | 40.06353 | 42.74270 | 33414 ft | 411 kts | 262° |
| 2026-05-06 20:16 | 40.06129 | 42.70549 | 33900 ft | 411 kts | 262° |
| 2026-05-06 20:16 | 40.05907 | 42.66869 | 34287 ft | 413 kts | 262° |
| 2026-05-06 20:17 | 40.05679 | 42.63132 | 34643 ft | 413 kts | 262° |
| 2026-05-06 20:17 | 40.05448 | 42.59390 | 35029 ft | 414 kts | 262° |
| 2026-05-06 20:17 | 40.05214 | 42.55653 | 35409 ft | 414 kts | 262° |
| 2026-05-06 20:17 | 40.04977 | 42.51906 | 35783 ft | 414 kts | 262° |
| 2026-05-06 20:18 | 40.04740 | 42.48157 | 36141 ft | 415 kts | 262° |
| 2026-05-06 20:18 | 40.04507 | 42.44404 | 36476 ft | 415 kts | 262° |
| 2026-05-06 20:18 | 40.04272 | 42.40650 | 36846 ft | 415 kts | 262° |
| 2026-05-06 20:18 | 40.04027 | 42.36895 | 37170 ft | 415 kts | 262° |
| 2026-05-06 20:19 | 40.03778 | 42.33189 | 37503 ft | 416 kts | 262° |
| 2026-05-06 20:19 | 40.03519 | 42.29433 | 37836 ft | 416 kts | 262° |
| 2026-05-06 20:19 | 40.03257 | 42.25674 | 38084 ft | 417 kts | 262° |
| 2026-05-06 20:19 | 40.02994 | 42.21913 | 38152 ft | 416 kts | 262° |
| 2026-05-06 20:20 | 40.02467 | 42.14396 | 38138 ft | 416 kts | 262° |
| 2026-05-06 20:20 | 40.01935 | 42.06925 | 38138 ft | 416 kts | 262° |
| 2026-05-06 20:21 | 40.01408 | 41.99412 | 38138 ft | 416 kts | 262° |
| 2026-05-06 20:21 | 40.00875 | 41.91893 | 38130 ft | 416 kts | 262° |
| 2026-05-06 20:22 | 40.00333 | 41.84379 | 38147 ft | 416 kts | 262° |
| 2026-05-06 20:22 | 39.99785 | 41.76871 | 38146 ft | 416 kts | 262° |
| 2026-05-06 20:23 | 39.99230 | 41.69422 | 38146 ft | 415 kts | 262° |
| 2026-05-06 20:23 | 39.98692 | 41.61919 | 38146 ft | 415 kts | 262° |
| 2026-05-06 20:24 | 39.98165 | 41.54423 | 38144 ft | 416 kts | 262° |
| 2026-05-06 20:24 | 39.97625 | 41.46918 | 38147 ft | 416 kts | 262° |
| 2026-05-06 20:25 | 39.97067 | 41.39423 | 38152 ft | 415 kts | 262° |
| 2026-05-06 20:25 | 39.96508 | 41.31985 | 38150 ft | 415 kts | 262° |
| 2026-05-06 20:26 | 39.95864 | 41.24523 | 38156 ft | 413 kts | 255° |
| 2026-05-06 20:26 | 39.93714 | 41.17676 | 38150 ft | 409 kts | 236° |
| 2026-05-06 20:27 | 39.90221 | 41.11821 | 38135 ft | 410 kts | 231° |
| 2026-05-06 20:27 | 39.86662 | 41.06009 | 38130 ft | 411 kts | 232° |
| 2026-05-06 20:28 | 39.83128 | 41.00228 | 38129 ft | 412 kts | 232° |
| 2026-05-06 20:28 | 39.79555 | 40.94403 | 38119 ft | 412 kts | 232° |
| 2026-05-06 20:29 | 39.75976 | 40.88584 | 38136 ft | 412 kts | 232° |
| 2026-05-06 20:29 | 39.72396 | 40.82779 | 38149 ft | 411 kts | 232° |
| 2026-05-06 20:30 | 39.67078 | 40.74118 | 38151 ft | 411 kts | 232° |
| 2026-05-06 20:31 | 39.63562 | 40.68282 | 38158 ft | 410 kts | 232° |
| 2026-05-06 20:31 | 39.60030 | 40.62474 | 38161 ft | 410 kts | 232° |
| 2026-05-06 20:32 | 39.56465 | 40.56710 | 38163 ft | 409 kts | 232° |
| 2026-05-06 20:32 | 39.52907 | 40.51004 | 38159 ft | 410 kts | 231° |
| 2026-05-06 20:33 | 39.49286 | 40.45309 | 38161 ft | 410 kts | 231° |
| 2026-05-06 20:33 | 39.45659 | 40.39608 | 38159 ft | 410 kts | 231° |
| 2026-05-06 20:34 | 39.42037 | 40.33905 | 38160 ft | 410 kts | 231° |
| 2026-05-06 20:34 | 39.38437 | 40.28234 | 38163 ft | 411 kts | 231° |
| 2026-05-06 20:35 | 39.34806 | 40.22533 | 38156 ft | 411 kts | 231° |
| 2026-05-06 20:35 | 39.31174 | 40.16832 | 38160 ft | 411 kts | 231° |
| 2026-05-06 20:36 | 39.27585 | 40.11097 | 38148 ft | 411 kts | 232° |
| 2026-05-06 20:36 | 39.24000 | 40.05355 | 38152 ft | 411 kts | 232° |
| 2026-05-06 20:37 | 39.20427 | 39.99662 | 38161 ft | 411 kts | 232° |
| 2026-05-06 20:37 | 39.16816 | 39.93953 | 38158 ft | 411 kts | 231° |
| 2026-05-06 20:38 | 39.13174 | 39.88276 | 38153 ft | 411 kts | 231° |
| 2026-05-06 20:38 | 39.09534 | 39.82607 | 38152 ft | 411 kts | 231° |
| 2026-05-06 20:39 | 39.05921 | 39.76982 | 38148 ft | 410 kts | 231° |
| 2026-05-06 20:39 | 39.02287 | 39.71332 | 38146 ft | 410 kts | 231° |
| 2026-05-06 20:40 | 38.98642 | 39.65683 | 38148 ft | 410 kts | 231° |
| 2026-05-06 20:40 | 38.95001 | 39.60031 | 38142 ft | 410 kts | 232° |
| 2026-05-06 20:41 | 38.91373 | 39.54375 | 38135 ft | 410 kts | 232° |
| 2026-05-06 20:41 | 38.87763 | 39.48777 | 38143 ft | 409 kts | 232° |
| 2026-05-06 20:42 | 38.84138 | 39.43144 | 38143 ft | 409 kts | 232° |
| 2026-05-06 20:42 | 38.80531 | 39.37499 | 38136 ft | 409 kts | 232° |
| 2026-05-06 20:43 | 38.76927 | 39.31872 | 38134 ft | 409 kts | 232° |
| 2026-05-06 20:43 | 38.73336 | 39.26291 | 38138 ft | 408 kts | 232° |
| 2026-05-06 20:44 | 38.69449 | 39.20991 | 38125 ft | 411 kts | 221° |
| 2026-05-06 20:44 | 38.64974 | 39.16437 | 38150 ft | 411 kts | 221° |
| 2026-05-06 20:45 | 38.60503 | 39.11880 | 38153 ft | 411 kts | 221° |
| 2026-05-06 20:45 | 38.56065 | 39.07366 | 38134 ft | 411 kts | 221° |
| 2026-05-06 20:46 | 38.51590 | 39.02829 | 38133 ft | 410 kts | 221° |
| 2026-05-06 20:46 | 38.47111 | 38.98307 | 38133 ft | 410 kts | 221° |
| 2026-05-06 20:47 | 38.42655 | 38.93754 | 38127 ft | 410 kts | 222° |
| 2026-05-06 20:47 | 38.38242 | 38.89217 | 38125 ft | 410 kts | 221° |
| 2026-05-06 20:48 | 38.33791 | 38.84672 | 38123 ft | 410 kts | 221° |
| 2026-05-06 20:48 | 38.29329 | 38.80142 | 38116 ft | 410 kts | 221° |
| 2026-05-06 20:49 | 38.24857 | 38.75611 | 38126 ft | 411 kts | 221° |
| 2026-05-06 20:49 | 38.20409 | 38.71117 | 38132 ft | 411 kts | 221° |
| 2026-05-06 20:50 | 38.15932 | 38.66597 | 38125 ft | 411 kts | 221° |
| 2026-05-06 20:50 | 38.11457 | 38.62096 | 38133 ft | 410 kts | 221° |
| 2026-05-06 20:51 | 38.06984 | 38.57612 | 38133 ft | 409 kts | 221° |
| 2026-05-06 20:51 | 38.02548 | 38.53161 | 38112 ft | 409 kts | 221° |
| 2026-05-06 20:52 | 37.98096 | 38.48697 | 38120 ft | 408 kts | 221° |
| 2026-05-06 20:52 | 37.93642 | 38.44243 | 38124 ft | 408 kts | 221° |
| 2026-05-06 20:53 | 37.89191 | 38.39796 | 38127 ft | 407 kts | 221° |
| 2026-05-06 20:53 | 37.84769 | 38.35385 | 38122 ft | 407 kts | 221° |
| 2026-05-06 20:54 | 37.80315 | 38.30949 | 38122 ft | 408 kts | 221° |
| 2026-05-06 20:54 | 37.75854 | 38.26523 | 38102 ft | 408 kts | 221° |
| 2026-05-06 20:55 | 37.71402 | 38.22105 | 38107 ft | 407 kts | 221° |
| 2026-05-06 20:55 | 37.68650 | 38.19379 | 38114 ft | 407 kts | 221° |
| 2026-05-06 20:56 | 37.68299 | 38.19032 | 38133 ft | 407 kts | 221° |
| 2026-05-06 20:56 | 37.63843 | 38.14619 | 38124 ft | 407 kts | 221° |
| 2026-05-06 20:57 | 37.61810 | 38.12611 | 38098 ft | 407 kts | 221° |
| 2026-05-06 20:57 | 37.59678 | 38.10505 | 38103 ft | 407 kts | 221° |
| 2026-05-06 20:58 | 37.55254 | 38.06140 | 38108 ft | 407 kts | 221° |
| 2026-05-06 20:58 | 37.50791 | 38.01750 | 38104 ft | 407 kts | 221° |
| 2026-05-06 20:59 | 37.46334 | 37.97359 | 38099 ft | 407 kts | 221° |
| 2026-05-06 20:59 | 37.41888 | 37.92957 | 38115 ft | 406 kts | 221° |
| 2026-05-06 21:00 | 37.37448 | 37.88564 | 38110 ft | 407 kts | 221° |
| 2026-05-06 21:00 | 37.33026 | 37.84202 | 38103 ft | 407 kts | 221° |
| 2026-05-06 21:01 | 37.32786 | 37.83966 | 38102 ft | 406 kts | 221° |
| 2026-05-06 21:02 | 37.28919 | 37.80164 | 38118 ft | 406 kts | 221° |
| 2026-05-06 21:03 | 37.24497 | 37.75827 | 38117 ft | 406 kts | 221° |
| 2026-05-06 21:03 | 37.20054 | 37.71458 | 38120 ft | 405 kts | 221° |
| 2026-05-06 21:04 | 37.15610 | 37.67100 | 38122 ft | 406 kts | 221° |
| 2026-05-06 21:04 | 37.11162 | 37.62757 | 38122 ft | 406 kts | 221° |
| 2026-05-06 21:05 | 37.06722 | 37.58463 | 38109 ft | 406 kts | 221° |
| 2026-05-06 21:05 | 37.02252 | 37.54150 | 38121 ft | 405 kts | 221° |
| 2026-05-06 21:06 | 36.97790 | 37.49841 | 38125 ft | 405 kts | 221° |
| 2026-05-06 21:06 | 36.93347 | 37.45517 | 38131 ft | 404 kts | 222° |
| 2026-05-06 21:07 | 36.89029 | 37.41095 | 38118 ft | 404 kts | 224° |
| 2026-05-06 21:07 | 36.84722 | 37.36600 | 38122 ft | 403 kts | 224° |
| 2026-05-06 21:08 | 36.80400 | 37.32139 | 38125 ft | 404 kts | 223° |
| 2026-05-06 21:08 | 36.76054 | 37.27699 | 38113 ft | 404 kts | 223° |
| 2026-05-06 21:09 | 36.71712 | 37.23268 | 38132 ft | 403 kts | 223° |
| 2026-05-06 21:09 | 36.67405 | 37.18863 | 38126 ft | 403 kts | 223° |
| 2026-05-06 21:10 | 36.63063 | 37.14433 | 38108 ft | 403 kts | 223° |
| 2026-05-06 21:10 | 36.58714 | 37.10020 | 38118 ft | 403 kts | 223° |
| 2026-05-06 21:11 | 36.54372 | 37.05620 | 38122 ft | 403 kts | 223° |
| 2026-05-06 21:11 | 36.50057 | 37.01249 | 38117 ft | 403 kts | 223° |
| 2026-05-06 21:12 | 36.45715 | 36.96849 | 38122 ft | 403 kts | 223° |
| 2026-05-06 21:12 | 36.41361 | 36.92456 | 38118 ft | 403 kts | 223° |
| 2026-05-06 21:13 | 36.37004 | 36.88059 | 38116 ft | 404 kts | 223° |
| 2026-05-06 21:13 | 36.32676 | 36.83690 | 38101 ft | 404 kts | 223° |
| 2026-05-06 21:14 | 36.28317 | 36.79302 | 38109 ft | 404 kts | 223° |
| 2026-05-06 21:14 | 36.23962 | 36.74922 | 38114 ft | 404 kts | 223° |
| 2026-05-06 21:15 | 36.19594 | 36.70547 | 38090 ft | 404 kts | 223° |
| 2026-05-06 21:15 | 36.15258 | 36.66191 | 38103 ft | 404 kts | 223° |
| 2026-05-06 21:16 | 36.10882 | 36.61821 | 38119 ft | 404 kts | 223° |
| 2026-05-06 21:16 | 36.06502 | 36.57458 | 38113 ft | 404 kts | 223° |
| 2026-05-06 21:17 | 36.02131 | 36.53092 | 38103 ft | 404 kts | 223° |
| 2026-05-06 21:17 | 35.97790 | 36.48756 | 38117 ft | 404 kts | 223° |
| 2026-05-06 21:18 | 35.93411 | 36.44400 | 38115 ft | 405 kts | 223° |
| 2026-05-06 21:18 | 35.89021 | 36.40042 | 38108 ft | 405 kts | 223° |
| 2026-05-06 21:19 | 35.84632 | 36.35686 | 38115 ft | 405 kts | 223° |
| 2026-05-06 21:19 | 35.80267 | 36.31370 | 38118 ft | 405 kts | 223° |
| 2026-05-06 21:20 | 35.75881 | 36.27034 | 38091 ft | 404 kts | 223° |
| 2026-05-06 21:20 | 35.71494 | 36.22698 | 38111 ft | 405 kts | 224° |
| 2026-05-06 21:21 | 35.67097 | 36.18360 | 38117 ft | 405 kts | 223° |
| 2026-05-06 21:21 | 35.62726 | 36.14046 | 38118 ft | 406 kts | 223° |
| 2026-05-06 21:22 | 35.58316 | 36.09714 | 38099 ft | 406 kts | 223° |
| 2026-05-06 21:22 | 35.53896 | 36.05390 | 38103 ft | 406 kts | 223° |
| 2026-05-06 21:23 | 35.49480 | 36.01071 | 38112 ft | 406 kts | 223° |
| 2026-05-06 21:23 | 35.45070 | 35.96742 | 37858 ft | 404 kts | 223° |
| 2026-05-06 21:23 | 35.42877 | 35.94595 | 37365 ft | 403 kts | 223° |
| 2026-05-06 21:24 | 35.40715 | 35.92483 | 36808 ft | 403 kts | 223° |
| 2026-05-06 21:24 | 35.38519 | 35.90337 | 36187 ft | 404 kts | 223° |
| 2026-05-06 21:24 | 35.36316 | 35.88186 | 35605 ft | 405 kts | 223° |
| 2026-05-06 21:24 | 35.34109 | 35.86037 | 35071 ft | 404 kts | 223° |
| 2026-05-06 21:25 | 35.31912 | 35.83897 | 34603 ft | 403 kts | 223° |
| 2026-05-06 21:25 | 35.29722 | 35.81766 | 34082 ft | 401 kts | 223° |
| 2026-05-06 21:25 | 35.27541 | 35.79644 | 33524 ft | 400 kts | 223° |
| 2026-05-06 21:25 | 35.25398 | 35.77560 | 32971 ft | 398 kts | 223° |
| 2026-05-06 21:26 | 35.23241 | 35.75466 | 32427 ft | 396 kts | 223° |
| 2026-05-06 21:26 | 35.21084 | 35.73377 | 31895 ft | 394 kts | 223° |
| 2026-05-06 21:26 | 35.18947 | 35.71308 | 31374 ft | 392 kts | 223° |
| 2026-05-06 21:26 | 35.16807 | 35.69257 | 30856 ft | 390 kts | 223° |
| 2026-05-06 21:27 | 35.14669 | 35.67230 | 30357 ft | 388 kts | 223° |
| 2026-05-06 21:27 | 35.13228 | 35.65933 | 29950 ft | 390 kts | 217° |
| 2026-05-06 21:27 | 35.09813 | 35.64278 | 29058 ft | 403 kts | 200° |
| 2026-05-06 21:27 | 35.08006 | 35.63751 | 28617 ft | 403 kts | 199° |
| 2026-05-06 21:28 | 35.04393 | 35.62738 | 27769 ft | 402 kts | 199° |
| 2026-05-06 21:28 | 35.01664 | 35.61995 | 27147 ft | 401 kts | 199° |
| 2026-05-06 21:28 | 34.98941 | 35.61253 | 26542 ft | 400 kts | 199° |
| 2026-05-06 21:28 | 34.96225 | 35.60510 | 25945 ft | 400 kts | 199° |
| 2026-05-06 21:29 | 34.94434 | 35.60017 | 25560 ft | 399 kts | 199° |
| 2026-05-06 21:29 | 34.91729 | 35.59272 | 24983 ft | 398 kts | 199° |
| 2026-05-06 21:29 | 34.89031 | 35.58525 | 24420 ft | 397 kts | 199° |
| 2026-05-06 21:29 | 34.86339 | 35.57775 | 23869 ft | 396 kts | 199° |
| 2026-05-06 21:30 | 34.83653 | 35.57025 | 23250 ft | 396 kts | 199° |
| 2026-05-06 21:30 | 34.80104 | 35.56033 | 22401 ft | 395 kts | 198° |
| 2026-05-06 21:30 | 34.77427 | 35.55290 | 21772 ft | 394 kts | 198° |
| 2026-05-06 21:30 | 34.75653 | 35.54800 | 21351 ft | 394 kts | 198° |
| 2026-05-06 21:31 | 34.72982 | 35.54061 | 20746 ft | 393 kts | 198° |
| 2026-05-06 21:31 | 34.70313 | 35.53323 | 20154 ft | 393 kts | 197° |
| 2026-05-06 21:31 | 34.67653 | 35.52588 | 19576 ft | 392 kts | 197° |
| 2026-05-06 21:31 | 34.64994 | 35.51852 | 19008 ft | 392 kts | 197° |
| 2026-05-06 21:32 | 34.62341 | 35.51121 | 18441 ft | 390 kts | 197° |
| 2026-05-06 21:32 | 34.57059 | 35.49674 | 17134 ft | 388 kts | 196° |
| 2026-05-06 21:32 | 34.54434 | 35.48951 | 16490 ft | 386 kts | 196° |
| 2026-05-06 21:33 | 34.51856 | 35.48239 | 15839 ft | 384 kts | 196° |
| 2026-05-06 21:33 | 34.49255 | 35.47522 | 15206 ft | 382 kts | 195° |
| 2026-05-06 21:33 | 34.46685 | 35.46817 | 14566 ft | 371 kts | 195° |
| 2026-05-06 21:33 | 34.44224 | 35.46144 | 13965 ft | 355 kts | 195° |
| 2026-05-06 21:34 | 34.41862 | 35.45500 | 13289 ft | 341 kts | 195° |
| 2026-05-06 21:34 | 34.39588 | 35.44875 | 12620 ft | 330 kts | 194° |
| 2026-05-06 21:34 | 34.37376 | 35.44268 | 11958 ft | 321 kts | 194° |
| 2026-05-06 21:34 | 34.35212 | 35.43675 | 11222 ft | 317 kts | 194° |
| 2026-05-06 21:35 | 34.33075 | 35.43090 | 10494 ft | 313 kts | 194° |
| 2026-05-06 21:35 | 34.30992 | 35.42518 | 9768 ft | 309 kts | 193° |
| 2026-05-06 21:35 | 34.28904 | 35.41944 | 8981 ft | 306 kts | 193° |
| 2026-05-06 21:35 | 34.26840 | 35.41379 | 8212 ft | 302 kts | 193° |
| 2026-05-06 21:36 | 34.24816 | 35.40824 | 7676 ft | 292 kts | 193° |
| 2026-05-06 21:36 | 34.22877 | 35.40292 | 7257 ft | 280 kts | 192° |
| 2026-05-06 21:36 | 34.21011 | 35.39782 | 6843 ft | 271 kts | 192° |
| 2026-05-06 21:36 | 34.19190 | 35.39285 | 6423 ft | 264 kts | 192° |
| 2026-05-06 21:37 | 34.17423 | 35.38871 | 5992 ft | 255 kts | 184° |
| 2026-05-06 21:37 | 34.15678 | 35.38944 | 5558 ft | 247 kts | 169° |
| 2026-05-06 21:37 | 34.14028 | 35.39408 | 5134 ft | 241 kts | 166° |
| 2026-05-06 21:37 | 34.12438 | 35.39879 | 4711 ft | 236 kts | 166° |
| 2026-05-06 21:38 | 34.10856 | 35.40342 | 4273 ft | 232 kts | 166° |
| 2026-05-06 21:38 | 34.09301 | 35.40798 | 3846 ft | 228 kts | 166° |
| 2026-05-06 21:38 | 34.07770 | 35.41245 | 3417 ft | 225 kts | 166° |
| 2026-05-06 21:38 | 34.06259 | 35.41686 | 2976 ft | 222 kts | 166° |
| 2026-05-06 21:39 | 34.04766 | 35.42107 | 2547 ft | 219 kts | 167° |
| 2026-05-06 21:39 | 34.03287 | 35.42515 | 2120 ft | 217 kts | 167° |
| 2026-05-06 21:39 | 34.01868 | 35.42908 | 2006 ft | 202 kts | 167° |
| 2026-05-06 21:39 | 34.00518 | 35.43284 | 2005 ft | 197 kts | 167° |
| 2026-05-06 21:40 | 33.99202 | 35.43649 | 2014 ft | 196 kts | 167° |
| 2026-05-06 21:40 | 33.97875 | 35.44015 | 2012 ft | 195 kts | 167° |
| 2026-05-06 21:40 | 33.96582 | 35.44372 | 2037 ft | 181 kts | 167° |
| 2026-05-06 21:40 | 33.95433 | 35.44691 | 2015 ft | 159 kts | 166° |
| 2026-05-06 21:41 | 33.94390 | 35.44983 | 1996 ft | 151 kts | 166° |
| 2026-05-06 21:41 | 33.93378 | 35.45267 | 1981 ft | 150 kts | 166° |
| 2026-05-06 21:41 | 33.92371 | 35.45548 | 1768 ft | 145 kts | 165° |
| 2026-05-06 21:41 | 33.91392 | 35.45820 | 1547 ft | 143 kts | 165° |
| 2026-05-06 21:42 | 33.90428 | 35.46090 | 1358 ft | 141 kts | 165° |
| 2026-05-06 21:42 | 33.89486 | 35.46354 | 1163 ft | 140 kts | 165° |
| 2026-05-06 21:42 | 33.88548 | 35.46616 | 973 ft | 138 kts | 164° |
| 2026-05-06 21:42 | 33.87619 | 35.46874 | 818 ft | 136 kts | 165° |
| 2026-05-06 21:43 | 33.86697 | 35.47135 | 640 ft | 136 kts | 165° |
| 2026-05-06 21:43 | 33.85784 | 35.47398 | 478 ft | 134 kts | 165° |
| 2026-05-06 21:43 | 33.84874 | 35.47654 | 317 ft | 135 kts | 166° |
| 2026-05-06 21:43 | 33.83959 | 35.47905 | 105 ft | 132 kts | 163° |
| 2026-05-06 21:44 | 33.83136 | 35.48134 | 25 ft | 108 kts | 166° |
| 2026-05-06 21:44 | 33.82487 | 35.48311 | 26 ft | 77 kts | 167° |
| 2026-05-06 21:44 | 33.82075 | 35.48429 | 23 ft | 48 kts | 161° |
| 2026-05-06 21:44 | 33.81858 | 35.48610 | 22 ft | 26 kts | 137° |
| 2026-05-06 21:45 | 33.81757 | 35.48758 | 20 ft | 23 kts | 109° |
| 2026-05-06 21:45 | 33.81722 | 35.48901 | 20 ft | 19 kts | 105° |
| 2026-05-06 21:45 | 33.81742 | 35.49030 | 23 ft | 17 kts | 38° |
| 2026-05-06 21:45 | 33.81845 | 35.49120 | 24 ft | 19 kts | 38° |
| 2026-05-06 21:46 | 33.81961 | 35.49218 | 24 ft | 22 kts | 37° |
| 2026-05-06 21:46 | 33.82088 | 35.49326 | 24 ft | 14 kts | 36° |
| 2026-05-06 21:46 | 33.82156 | 35.49356 | 24 ft | 11 kts | 348° |
| 2026-05-06 21:46 | 33.82196 | 35.49270 | 24 ft | 15 kts | 289° |
| 2026-05-06 21:47 | 33.82267 | 35.49236 | 23 ft | 9 kts | 14° |
| 2026-05-06 21:47 | 33.82347 | 35.49258 | 23 ft | 13 kts | 15° |
| 2026-05-06 21:47 | 33.82395 | 35.49222 | 25 ft | 7 kts | 285° |
| 2026-05-06 21:47 | 33.82400 | 35.49202 | 23 ft | 0 kts | 284° |